createdAt,value
2022-10-06T00:00:03.728Z,13.81
2022-10-06T00:01:03.796Z,13.79
2022-10-06T00:02:03.706Z,13.63
2022-10-06T00:03:03.697Z,13.73
2022-10-06T00:04:03.686Z,13.66
2022-10-06T00:05:03.736Z,13.68
2022-10-06T00:06:03.668Z,13.62
2022-10-06T00:07:03.654Z,13.61
2022-10-06T00:08:03.659Z,13.65
2022-10-06T00:09:03.634Z,13.63
2022-10-06T00:10:03.624Z,13.69
2022-10-06T00:11:03.609Z,13.68
2022-10-06T00:12:03.598Z,13.61
2022-10-06T00:13:03.589Z,13.59
2022-10-06T00:14:03.649Z,13.62
2022-10-06T00:15:03.567Z,13.57
2022-10-06T00:16:03.580Z,13.57
2022-10-06T00:17:03.544Z,13.53
2022-10-06T00:18:03.539Z,13.47
2022-10-06T00:19:03.524Z,13.48
2022-10-06T00:20:03.512Z,13.54
2022-10-06T00:21:03.602Z,13.51
2022-10-06T00:22:03.491Z,13.43
2022-10-06T00:23:03.478Z,13.50
2022-10-06T00:24:03.485Z,13.53
2022-10-06T00:25:03.474Z,13.50
2022-10-06T00:26:03.446Z,13.51
2022-10-06T00:27:03.438Z,13.50
2022-10-06T00:28:03.498Z,13.44
2022-10-06T00:29:03.463Z,13.55
2022-10-06T00:30:03.402Z,13.55
2022-10-06T00:31:03.432Z,13.39
2022-10-06T00:32:03.379Z,13.35
2022-10-06T00:33:03.373Z,13.35
2022-10-06T00:34:03.411Z,13.38
2022-10-06T00:35:03.347Z,13.44
2022-10-06T00:36:03.336Z,13.39
2022-10-06T00:37:03.326Z,13.32
2022-10-06T00:39:03.403Z,13.29
2022-10-06T00:40:03.343Z,13.28
2022-10-06T00:41:03.280Z,13.27
2022-10-06T00:42:03.312Z,13.25
2022-10-06T00:43:03.258Z,13.28
2022-10-06T00:44:03.249Z,13.27
2022-10-06T00:45:03.235Z,13.28
2022-10-06T00:46:03.267Z,13.27
2022-10-06T00:47:03.262Z,13.27
2022-10-06T00:48:03.206Z,13.22
2022-10-06T00:50:03.181Z,13.25
2022-10-06T00:51:03.172Z,13.25
2022-10-06T00:52:03.254Z,13.22
2022-10-06T00:53:03.149Z,13.24
2022-10-06T00:54:03.138Z,13.21
2022-10-06T00:55:03.127Z,13.14
2022-10-06T00:56:03.131Z,13.19
2022-10-06T00:57:03.108Z,13.17
2022-10-06T00:58:03.091Z,13.21
2022-10-06T00:59:03.083Z,13.13
2022-10-06T01:00:03.271Z,13.16
2022-10-06T01:01:03.167Z,13.19
2022-10-06T01:02:03.052Z,13.22
2022-10-06T01:03:03.100Z,13.25
2022-10-06T01:04:03.032Z,13.32
2022-10-06T01:05:03.015Z,13.36
2022-10-06T01:06:03.006Z,13.28
2022-10-06T01:07:02.992Z,13.32
2022-10-06T01:08:02.983Z,13.25
2022-10-06T01:09:02.970Z,13.27
2022-10-06T01:10:02.962Z,13.19
2022-10-06T01:11:02.948Z,13.27
2022-10-06T01:12:02.958Z,13.22
2022-10-06T01:13:02.925Z,13.14
2022-10-06T01:14:02.916Z,13.12
2022-10-06T01:15:02.904Z,13.12
2022-10-06T01:16:02.966Z,13.12
2022-10-06T01:17:02.889Z,13.10
2022-10-06T01:18:02.873Z,13.12
2022-10-06T01:19:02.860Z,13.07
2022-10-06T01:20:02.849Z,12.99
2022-10-06T01:21:02.838Z,13.06
2022-10-06T01:22:02.829Z,13.01
2022-10-06T01:23:02.815Z,13.12
2022-10-06T01:24:02.803Z,13.19
2022-10-06T01:25:02.796Z,13.17
2022-10-06T01:26:02.784Z,13.22
2022-10-06T01:27:02.769Z,13.14
2022-10-06T01:28:02.863Z,13.12
2022-10-06T01:29:02.747Z,13.16
2022-10-06T01:30:02.738Z,13.14
2022-10-06T01:31:02.892Z,13.19
2022-10-06T01:32:02.714Z,13.22
2022-10-06T01:33:02.706Z,13.21
2022-10-06T01:34:02.694Z,13.24
2022-10-06T01:35:02.679Z,13.19
2022-10-06T01:36:02.671Z,13.16
2022-10-06T01:37:02.657Z,13.14
2022-10-06T01:38:02.650Z,13.27
2022-10-06T01:39:02.636Z,13.44
2022-10-06T01:40:02.625Z,13.31
2022-10-06T01:41:02.614Z,13.21
2022-10-06T01:42:02.604Z,13.31
2022-10-06T01:43:02.593Z,13.31
2022-10-06T01:44:02.599Z,13.35
2022-10-06T01:45:02.569Z,13.35
2022-10-06T01:46:02.632Z,13.29
2022-10-06T01:47:02.547Z,13.36
2022-10-06T01:48:02.536Z,13.36
2022-10-06T01:49:02.525Z,13.35
2022-10-06T01:50:02.517Z,13.35
2022-10-06T01:51:02.499Z,13.39
2022-10-06T01:52:02.491Z,13.44
2022-10-06T01:53:02.483Z,13.41
2022-10-06T01:54:02.475Z,13.44
2022-10-06T01:55:02.454Z,13.38
2022-10-06T01:56:02.446Z,13.48
2022-10-06T01:57:02.434Z,13.41
2022-10-06T01:58:02.422Z,13.35
2022-10-06T01:59:02.408Z,13.41
2022-10-06T02:00:02.501Z,13.39
2022-10-06T02:01:02.386Z,13.36
2022-10-06T02:02:02.516Z,13.39
2022-10-06T02:03:02.370Z,13.41
2022-10-06T02:04:02.401Z,13.44
2022-10-06T02:05:02.344Z,13.55
2022-10-06T02:06:02.395Z,13.50
2022-10-06T02:07:02.319Z,13.50
2022-10-06T02:08:02.311Z,13.53
2022-10-06T02:09:02.297Z,13.53
2022-10-06T02:10:02.290Z,13.50
2022-10-06T02:11:02.274Z,13.51
2022-10-06T02:12:02.266Z,13.44
2022-10-06T02:13:02.252Z,13.38
2022-10-06T02:14:02.245Z,13.41
2022-10-06T02:15:02.230Z,13.50
2022-10-06T02:16:02.311Z,13.50
2022-10-06T02:17:02.206Z,13.55
2022-10-06T02:18:02.198Z,13.41
2022-10-06T02:19:02.184Z,13.46
2022-10-06T02:20:02.175Z,13.54
2022-10-06T02:21:02.162Z,13.53
2022-10-06T02:22:02.163Z,13.51
2022-10-06T02:23:02.141Z,13.50
2022-10-06T02:24:02.135Z,13.65
2022-10-06T02:25:02.117Z,13.69
2022-10-06T02:26:02.109Z,13.73
2022-10-06T02:27:02.096Z,13.66
2022-10-06T02:28:02.154Z,13.71
2022-10-06T02:29:02.073Z,13.79
2022-10-06T02:30:02.064Z,13.80
2022-10-06T02:31:02.142Z,13.76
2022-10-06T02:32:02.060Z,13.79
2022-10-06T02:33:02.048Z,13.73
2022-10-06T02:34:02.021Z,13.68
2022-10-06T02:35:02.003Z,13.66
2022-10-06T02:36:01.997Z,13.65
2022-10-06T02:37:01.983Z,13.66
2022-10-06T02:38:01.974Z,13.63
2022-10-06T02:39:01.959Z,13.66
2022-10-06T02:40:01.953Z,13.63
2022-10-06T02:41:01.952Z,13.71
2022-10-06T02:42:01.928Z,13.62
2022-10-06T02:43:01.914Z,13.68
2022-10-06T02:44:01.909Z,13.57
2022-10-06T02:45:01.894Z,13.65
2022-10-06T02:46:01.884Z,13.63
2022-10-06T02:47:01.870Z,13.71
2022-10-06T02:48:01.880Z,13.72
2022-10-06T02:49:01.850Z,13.73
2022-10-06T02:50:01.841Z,13.69
2022-10-06T02:51:01.928Z,13.76
2022-10-06T02:52:01.817Z,13.72
2022-10-06T02:53:01.804Z,13.79
2022-10-06T02:54:01.794Z,13.79
2022-10-06T02:55:01.985Z,13.80
2022-10-06T02:56:01.781Z,13.76
2022-10-06T02:57:01.761Z,13.69
2022-10-06T02:58:01.751Z,13.72
2022-10-06T02:59:01.737Z,13.71
2022-10-06T03:00:01.740Z,13.68
2022-10-06T03:01:01.716Z,13.71
2022-10-06T03:02:01.808Z,13.71
2022-10-06T03:03:01.780Z,13.71
2022-10-06T03:04:01.702Z,13.79
2022-10-06T03:05:01.673Z,13.73
2022-10-06T03:06:01.661Z,13.71
2022-10-06T03:07:01.651Z,13.76
2022-10-06T03:08:01.641Z,13.66
2022-10-06T03:09:01.628Z,13.79
2022-10-06T03:10:01.624Z,13.72
2022-10-06T03:11:01.605Z,13.65
2022-10-06T03:12:01.596Z,13.66
2022-10-06T03:13:01.582Z,13.63
2022-10-06T03:14:01.575Z,13.68
2022-10-06T03:15:01.571Z,13.63
2022-10-06T03:16:01.638Z,13.69
2022-10-06T03:17:01.543Z,13.76
2022-10-06T03:18:01.534Z,13.71
2022-10-06T03:19:01.518Z,13.69
2022-10-06T03:20:01.526Z,13.66
2022-10-06T03:21:01.493Z,13.66
2022-10-06T03:22:01.483Z,13.71
2022-10-06T03:23:01.471Z,13.71
2022-10-06T03:24:01.469Z,13.71
2022-10-06T03:25:01.448Z,13.69
2022-10-06T03:26:01.444Z,13.71
2022-10-06T03:27:01.426Z,13.66
2022-10-06T03:28:01.474Z,13.65
2022-10-06T03:29:01.408Z,13.69
2022-10-06T03:30:01.398Z,13.66
2022-10-06T03:31:01.417Z,13.62
2022-10-06T03:32:01.374Z,13.69
2022-10-06T03:33:01.360Z,13.72
2022-10-06T03:34:01.351Z,13.66
2022-10-06T03:35:01.339Z,13.62
2022-10-06T03:36:01.348Z,13.66
2022-10-06T03:37:01.317Z,13.66
2022-10-06T03:38:01.308Z,13.75
2022-10-06T03:39:01.304Z,13.71
2022-10-06T03:40:01.284Z,13.68
2022-10-06T03:41:01.272Z,13.72
2022-10-06T03:42:01.264Z,13.71
2022-10-06T03:43:01.249Z,13.69
2022-10-06T03:44:01.242Z,13.68
2022-10-06T03:45:01.232Z,13.66
2022-10-06T03:46:01.218Z,13.71
2022-10-06T03:47:01.269Z,13.69
2022-10-06T03:48:01.197Z,13.69
2022-10-06T03:49:01.195Z,13.72
2022-10-06T03:50:01.175Z,13.69
2022-10-06T03:51:01.163Z,13.66
2022-10-06T03:52:01.171Z,13.62
2022-10-06T03:53:01.138Z,13.66
2022-10-06T03:54:01.130Z,13.66
2022-10-06T03:55:01.115Z,13.63
2022-10-06T03:56:01.109Z,13.57
2022-10-06T03:57:01.097Z,13.57
2022-10-06T03:58:01.086Z,13.55
2022-10-06T03:59:01.073Z,13.55
2022-10-06T04:00:01.077Z,13.50
2022-10-06T04:01:01.192Z,13.51
2022-10-06T04:02:01.074Z,13.50
2022-10-06T04:03:01.027Z,13.53
2022-10-06T04:04:01.020Z,13.55
2022-10-06T04:05:01.006Z,13.55
2022-10-06T04:06:00.997Z,13.55
2022-10-06T04:07:00.989Z,13.53
2022-10-06T04:08:00.991Z,13.48
2022-10-06T04:09:00.961Z,13.47
2022-10-06T04:10:00.953Z,13.51
2022-10-06T04:11:00.938Z,13.51
2022-10-06T04:12:00.933Z,13.48
2022-10-06T04:13:00.916Z,13.48
2022-10-06T04:14:00.907Z,13.50
2022-10-06T04:15:00.893Z,13.54
2022-10-06T04:16:00.907Z,13.41
2022-10-06T04:17:00.871Z,13.38
2022-10-06T04:18:00.962Z,13.41
2022-10-06T04:19:00.848Z,13.36
2022-10-06T04:20:00.842Z,13.36
2022-10-06T04:21:01.028Z,13.41
2022-10-06T04:22:00.820Z,13.32
2022-10-06T04:23:00.803Z,13.41
2022-10-06T04:24:00.815Z,13.44
2022-10-06T04:25:00.784Z,13.38
2022-10-06T04:26:00.778Z,13.35
2022-10-06T04:27:00.759Z,13.39
2022-10-06T04:28:00.771Z,13.36
2022-10-06T04:29:00.743Z,13.38
2022-10-06T04:30:00.728Z,13.38
2022-10-06T04:31:00.714Z,13.29
2022-10-06T04:32:00.756Z,13.24
2022-10-06T04:33:00.694Z,13.35
2022-10-06T04:34:00.734Z,13.32
2022-10-06T04:35:00.669Z,13.29
2022-10-06T04:36:00.660Z,13.35
2022-10-06T04:37:00.647Z,13.32
2022-10-06T04:38:00.637Z,13.31
2022-10-06T04:39:00.623Z,13.43
2022-10-06T04:40:00.632Z,13.38
2022-10-06T04:41:00.603Z,13.41
2022-10-06T04:42:00.606Z,13.31
2022-10-06T04:43:00.579Z,13.31
2022-10-06T04:44:00.571Z,13.32
2022-10-06T04:45:00.557Z,13.35
2022-10-06T04:46:06.442Z,13.24
2022-10-06T04:47:00.656Z,13.22
2022-10-06T04:48:00.525Z,13.14
2022-10-06T04:49:00.512Z,13.13
2022-10-06T04:50:00.501Z,13.07
2022-10-06T04:51:00.488Z,13.12
2022-10-06T04:52:00.479Z,13.09
2022-10-06T04:53:00.466Z,13.06
2022-10-06T04:54:00.459Z,13.01
2022-10-06T04:55:00.442Z,13.10
2022-10-06T04:56:00.453Z,13.07
2022-10-06T04:57:00.505Z,12.99
2022-10-06T04:58:00.410Z,13.04
2022-10-06T04:59:00.397Z,12.92
2022-10-06T05:00:05.968Z,12.96
2022-10-06T05:01:00.426Z,12.98
2022-10-06T05:02:00.409Z,13.06
2022-10-06T05:03:00.363Z,13.06
2022-10-06T05:04:00.343Z,13.03
2022-10-06T05:05:00.328Z,13.03
2022-10-06T05:06:00.322Z,13.04
2022-10-06T05:07:00.429Z,12.98
2022-10-06T05:08:00.300Z,12.94
2022-10-06T05:09:00.282Z,12.98
2022-10-06T05:10:00.279Z,13.01
2022-10-06T05:11:00.262Z,13.04
2022-10-06T05:12:00.270Z,13.03
2022-10-06T05:13:00.253Z,13.04
2022-10-06T05:14:00.230Z,12.92
2022-10-06T05:15:00.214Z,12.92
2022-10-06T05:16:00.258Z,12.98
2022-10-06T05:17:00.193Z,12.94
2022-10-06T05:18:00.181Z,13.04
2022-10-06T05:19:00.172Z,12.96
2022-10-06T05:20:00.158Z,13.04
2022-10-06T05:21:04.418Z,12.96
2022-10-06T05:22:00.136Z,12.91
2022-10-06T05:23:00.125Z,12.92
2022-10-06T05:24:00.125Z,12.94
2022-10-06T05:25:00.102Z,12.94
2022-10-06T05:26:00.090Z,12.95
2022-10-06T05:27:01.842Z,12.98
2022-10-06T05:28:00.155Z,13.01
2022-10-06T05:29:00.057Z,12.89
2022-10-06T05:30:00.046Z,12.95
2022-10-06T05:31:00.032Z,12.89
2022-10-06T05:32:00.078Z,12.91
2022-10-06T05:33:00.012Z,12.96
2022-10-06T05:33:59.998Z,12.84
2022-10-06T05:34:59.988Z,12.84
2022-10-06T05:35:59.973Z,12.87
2022-10-06T05:36:59.964Z,12.94
2022-10-06T05:37:59.954Z,12.81
2022-10-06T05:38:59.941Z,12.88
2022-10-06T05:39:59.933Z,12.85
2022-10-06T05:40:59.919Z,12.81
2022-10-06T05:41:59.905Z,12.76
2022-10-06T05:42:59.896Z,12.76
2022-10-06T05:43:59.902Z,12.69
2022-10-06T05:44:59.872Z,12.73
2022-10-06T05:45:59.948Z,12.71
2022-10-06T05:46:59.849Z,12.79
2022-10-06T05:47:59.834Z,12.91
2022-10-06T05:48:59.826Z,12.95
2022-10-06T05:49:59.813Z,12.95
2022-10-06T05:50:59.803Z,12.92
2022-10-06T05:51:59.795Z,12.94
2022-10-06T05:52:59.779Z,12.89
2022-10-06T05:53:59.772Z,12.95
2022-10-06T05:54:59.756Z,12.96
2022-10-06T05:55:59.742Z,12.92
2022-10-06T05:56:59.734Z,12.89
2022-10-06T05:57:59.735Z,12.85
2022-10-06T05:58:59.712Z,12.84
2022-10-06T05:59:59.714Z,12.80
2022-10-06T06:00:59.689Z,12.84
2022-10-06T06:01:59.830Z,12.76
2022-10-06T06:02:59.772Z,12.79
2022-10-06T06:03:59.688Z,12.79
2022-10-06T06:04:59.648Z,12.71
2022-10-06T06:05:59.652Z,12.69
2022-10-06T06:06:59.686Z,12.77
2022-10-06T06:07:59.603Z,12.74
2022-10-06T06:08:59.595Z,12.69
2022-10-06T06:09:59.583Z,12.69
2022-10-06T06:10:59.573Z,12.71
2022-10-06T06:11:59.558Z,12.70
2022-10-06T06:12:59.548Z,12.63
2022-10-06T06:13:59.534Z,12.66
2022-10-06T06:14:59.525Z,12.69
2022-10-06T06:15:59.530Z,12.63
2022-10-06T06:16:59.538Z,12.67
2022-10-06T06:17:59.489Z,12.71
2022-10-06T06:18:59.479Z,12.76
2022-10-06T06:19:59.464Z,12.84
2022-10-06T06:20:59.458Z,12.81
2022-10-06T06:21:59.443Z,12.91
2022-10-06T06:22:59.433Z,12.92
2022-10-06T06:23:59.419Z,12.95
2022-10-06T06:24:59.410Z,12.98
2022-10-06T06:26:02.247Z,12.99
2022-10-06T06:26:59.385Z,13.03
2022-10-06T06:27:59.410Z,13.06
2022-10-06T06:28:59.362Z,13.04
2022-10-06T06:29:59.350Z,13.03
2022-10-06T06:30:59.367Z,13.07
2022-10-06T06:31:59.344Z,13.12
2022-10-06T06:32:59.332Z,13.13
2022-10-06T06:33:59.307Z,13.09
2022-10-06T06:34:59.291Z,13.16
2022-10-06T06:35:59.281Z,13.16
2022-10-06T06:37:03.778Z,13.19
2022-10-06T06:37:59.257Z,13.24
2022-10-06T06:38:59.246Z,13.28
2022-10-06T06:39:59.234Z,13.31
2022-10-06T06:40:59.224Z,13.31
2022-10-06T06:41:59.212Z,13.27
2022-10-06T06:42:59.215Z,13.38
2022-10-06T06:43:59.189Z,13.39
2022-10-06T06:44:59.179Z,13.36
2022-10-06T06:45:59.216Z,13.43
2022-10-06T06:46:59.154Z,13.44
2022-10-06T06:47:59.162Z,13.54
2022-10-06T06:48:59.133Z,13.51
2022-10-06T06:49:59.126Z,13.62
2022-10-06T06:50:59.110Z,13.66
2022-10-06T06:51:59.096Z,13.72
2022-10-06T06:52:59.088Z,13.73
2022-10-06T06:53:59.077Z,13.75
2022-10-06T06:54:59.065Z,13.81
2022-10-06T06:55:59.053Z,13.84
2022-10-06T06:56:59.054Z,13.93
2022-10-06T06:57:59.032Z,13.96
2022-10-06T06:58:59.021Z,14.02
2022-10-06T06:59:59.008Z,14.04
2022-10-06T07:00:59.046Z,14.12
2022-10-06T07:01:59.091Z,14.23
2022-10-06T07:02:58.977Z,14.36
2022-10-06T07:03:59.352Z,14.45
2022-10-06T07:04:58.956Z,14.46
2022-10-06T07:05:58.943Z,14.52
2022-10-06T07:07:58.923Z,14.60
2022-10-06T07:08:58.915Z,14.69
2022-10-06T07:09:58.910Z,14.67
2022-10-06T07:10:58.888Z,14.79
2022-10-06T07:11:58.900Z,14.90
2022-10-06T07:12:58.870Z,14.90
2022-10-06T07:13:58.872Z,14.93
2022-10-06T07:14:58.854Z,15.05
2022-10-06T07:15:58.871Z,15.05
2022-10-06T07:16:58.828Z,15.09
2022-10-06T07:17:58.818Z,15.20
2022-10-06T07:18:58.804Z,15.19
2022-10-06T07:19:58.814Z,15.25
2022-10-06T07:20:58.784Z,15.23
2022-10-06T07:21:58.776Z,15.33
2022-10-06T07:22:58.774Z,15.41
2022-10-06T07:23:58.756Z,15.35
2022-10-06T07:24:58.744Z,15.44
2022-10-06T07:25:58.734Z,15.38
2022-10-06T07:26:58.719Z,15.53
2022-10-06T07:27:58.799Z,15.52
2022-10-06T07:28:58.702Z,15.52
2022-10-06T07:29:58.695Z,15.58
2022-10-06T07:30:58.727Z,15.71
2022-10-06T07:31:58.673Z,15.74
2022-10-06T07:32:58.661Z,15.78
2022-10-06T07:33:58.653Z,15.88
2022-10-06T07:34:58.642Z,15.99
2022-10-06T07:35:58.651Z,15.96
2022-10-06T07:37:02.718Z,16.04
2022-10-06T07:37:58.614Z,16.08
2022-10-06T07:38:58.612Z,16.23
2022-10-06T07:39:58.593Z,16.29
2022-10-06T07:41:58.586Z,16.41
2022-10-06T07:42:58.563Z,16.41
2022-10-06T07:43:58.555Z,16.42
2022-10-06T07:44:58.544Z,16.40
2022-10-06T07:45:58.585Z,16.48
2022-10-06T07:46:58.526Z,16.37
2022-10-06T07:47:58.514Z,16.34
2022-10-06T07:49:58.500Z,16.44
2022-10-06T07:50:58.485Z,16.36
2022-10-06T07:51:58.519Z,16.26
2022-10-06T07:52:58.467Z,16.23
2022-10-06T07:53:58.460Z,16.11
2022-10-06T07:54:58.486Z,16.10
2022-10-06T07:55:58.440Z,16.08
2022-10-06T07:56:58.430Z,16.13
2022-10-06T07:57:58.426Z,16.14
2022-10-06T07:58:58.412Z,16.03
2022-10-06T08:00:02.838Z,16.06
2022-10-06T08:00:58.392Z,15.93
2022-10-06T08:01:58.444Z,15.96
2022-10-06T08:02:58.417Z,16.03
2022-10-06T08:03:58.365Z,15.95
2022-10-06T08:04:58.353Z,15.95
2022-10-06T08:05:58.347Z,15.98
2022-10-06T08:06:58.336Z,16.01
2022-10-06T08:07:58.346Z,15.99
2022-10-06T08:08:58.314Z,15.96
2022-10-06T08:09:58.311Z,16.06
2022-10-06T08:11:00.371Z,16.08
2022-10-06T08:11:58.289Z,16.07
2022-10-06T08:12:58.277Z,16.10
2022-10-06T08:13:58.269Z,16.07
2022-10-06T08:15:00.701Z,16.16
2022-10-06T08:15:58.331Z,16.18
2022-10-06T08:16:58.240Z,16.22
2022-10-06T08:17:58.232Z,16.17
2022-10-06T08:18:58.221Z,16.25
2022-10-06T08:19:58.214Z,16.25
2022-10-06T08:20:58.210Z,16.33
2022-10-06T08:22:02.491Z,16.37
2022-10-06T08:22:58.194Z,16.41
2022-10-06T08:23:58.266Z,16.42
2022-10-06T08:25:06.850Z,16.44
2022-10-06T08:25:58.164Z,16.44
2022-10-06T08:26:58.144Z,16.52
2022-10-06T08:27:58.209Z,16.44
2022-10-06T08:28:58.125Z,16.55
2022-10-06T08:29:58.174Z,16.63
2022-10-06T08:30:58.167Z,16.63
2022-10-06T08:31:58.163Z,16.82
2022-10-06T08:32:58.087Z,16.90
2022-10-06T08:33:58.086Z,16.84
2022-10-06T08:34:58.668Z,16.87
2022-10-06T08:35:58.063Z,16.95
2022-10-06T08:37:15.828Z,16.96
2022-10-06T08:37:58.046Z,16.92
2022-10-06T08:38:58.033Z,17.00
2022-10-06T08:39:58.046Z,17.00
2022-10-06T08:40:58.017Z,17.09
2022-10-06T08:41:58.011Z,17.17
2022-10-06T08:42:58.003Z,17.18
2022-10-06T08:43:57.992Z,17.18
2022-10-06T08:44:58.162Z,17.15
2022-10-06T08:45:57.979Z,17.33
2022-10-06T08:46:57.963Z,17.30
2022-10-06T08:47:57.958Z,17.27
2022-10-06T08:48:57.947Z,17.28
2022-10-06T08:49:58.639Z,17.30
2022-10-06T08:50:57.927Z,17.43
2022-10-06T08:51:57.921Z,17.42
2022-10-06T08:52:57.911Z,17.18
2022-10-06T08:53:57.904Z,17.20
2022-10-06T08:54:57.892Z,17.30
2022-10-06T08:55:57.905Z,17.42
2022-10-06T08:56:57.877Z,17.28
2022-10-06T08:57:57.903Z,17.24
2022-10-06T08:58:57.858Z,17.24
2022-10-06T08:59:58.207Z,17.30
2022-10-06T09:00:57.899Z,17.32
2022-10-06T09:01:57.913Z,17.32
2022-10-06T09:02:57.824Z,17.45
2022-10-06T09:03:57.817Z,17.38
2022-10-06T09:04:57.806Z,17.30
2022-10-06T09:05:57.802Z,17.38
2022-10-06T09:06:57.788Z,17.38
2022-10-06T09:07:57.782Z,17.51
2022-10-06T09:08:57.773Z,17.47
2022-10-06T09:09:58.159Z,17.54
2022-10-06T09:10:57.753Z,17.57
2022-10-06T09:11:57.767Z,17.53
2022-10-06T09:12:57.740Z,17.65
2022-10-06T09:13:57.731Z,17.73
2022-10-06T09:14:57.721Z,17.86
2022-10-06T09:15:57.812Z,17.76
2022-10-06T09:16:57.704Z,17.81
2022-10-06T09:17:57.698Z,17.92
2022-10-06T09:19:08.292Z,17.98
2022-10-06T09:19:58.066Z,17.92
2022-10-06T09:22:57.655Z,18.07
2022-10-06T09:23:57.673Z,18.20
2022-10-06T09:24:57.643Z,18.19
2022-10-06T09:25:57.653Z,18.26
2022-10-06T09:26:57.618Z,18.36
2022-10-06T09:27:57.700Z,18.44
2022-10-06T09:28:57.606Z,18.46
2022-10-06T09:29:58.252Z,18.49
2022-10-06T09:30:57.641Z,18.50
2022-10-06T09:31:57.581Z,18.46
2022-10-06T09:32:57.571Z,18.59
2022-10-06T09:33:57.566Z,18.66
2022-10-06T09:34:57.556Z,18.72
2022-10-06T09:35:57.548Z,18.76
2022-10-06T09:37:01.076Z,18.74
2022-10-06T09:37:57.535Z,18.84
2022-10-06T09:38:57.525Z,18.87
2022-10-06T09:39:57.945Z,18.91
2022-10-06T09:40:57.510Z,19.05
2022-10-06T09:41:57.503Z,19.07
2022-10-06T09:42:57.511Z,19.34
2022-10-06T09:43:57.514Z,19.52
2022-10-06T09:44:57.694Z,19.58
2022-10-06T09:45:57.491Z,19.61
2022-10-06T09:46:57.464Z,19.80
2022-10-06T09:47:57.455Z,19.75
2022-10-06T09:48:57.449Z,19.78
2022-10-06T09:49:57.973Z,19.82
2022-10-06T09:50:57.437Z,19.82
2022-10-06T09:51:57.425Z,19.76
2022-10-06T09:52:57.427Z,19.85
2022-10-06T09:53:57.412Z,19.89
2022-10-06T09:54:57.408Z,19.79
2022-10-06T09:55:57.399Z,19.89
2022-10-06T09:56:57.444Z,19.94
2022-10-06T09:57:57.387Z,20.05
2022-10-06T09:58:57.395Z,20.04
2022-10-06T09:59:57.839Z,20.01
2022-10-06T10:00:57.423Z,20.07
2022-10-06T10:01:57.357Z,20.10
2022-10-06T10:02:57.445Z,20.16
2022-10-06T10:04:18.852Z,20.27
2022-10-06T10:04:57.337Z,20.38
2022-10-06T10:05:57.329Z,20.37
2022-10-06T10:06:57.325Z,20.46
2022-10-06T10:07:57.314Z,20.50
2022-10-06T10:08:57.312Z,20.61
2022-10-06T10:09:57.694Z,20.54
2022-10-06T10:10:57.297Z,20.51
2022-10-06T10:11:57.288Z,20.27
2022-10-06T10:12:57.284Z,20.35
2022-10-06T10:13:57.277Z,20.34
2022-10-06T10:14:57.271Z,20.15
2022-10-06T10:15:57.349Z,20.12
2022-10-06T10:16:57.258Z,20.16
2022-10-06T10:17:57.257Z,20.33
2022-10-06T10:18:57.247Z,20.46
2022-10-06T10:19:57.630Z,20.61
2022-10-06T10:20:57.232Z,20.73
2022-10-06T10:21:57.223Z,20.79
2022-10-06T10:22:57.220Z,20.87
2022-10-06T10:23:57.210Z,20.94
2022-10-06T10:24:57.209Z,20.96
2022-10-06T10:25:57.199Z,21.08
2022-10-06T10:26:57.205Z,20.96
2022-10-06T10:27:57.262Z,21.00
2022-10-06T10:28:57.190Z,21.16
2022-10-06T10:29:57.517Z,21.21
2022-10-06T10:30:57.194Z,21.38
2022-10-06T10:31:57.189Z,21.51
2022-10-06T10:34:12.007Z,21.45
2022-10-06T10:34:57.337Z,21.55
2022-10-06T10:35:57.142Z,21.55
2022-10-06T10:36:57.132Z,21.48
2022-10-06T10:37:57.128Z,21.59
2022-10-06T10:38:57.121Z,21.58
2022-10-06T10:39:57.116Z,21.59
2022-10-06T10:40:57.112Z,21.56
2022-10-06T10:41:57.107Z,21.75
2022-10-06T10:42:57.098Z,21.74
2022-10-06T10:43:59.623Z,21.83
2022-10-06T10:44:57.413Z,21.94
2022-10-06T10:45:57.085Z,21.96
2022-10-06T10:46:57.170Z,22.02
2022-10-06T10:47:57.091Z,22.12
2022-10-06T10:48:57.065Z,22.17
2022-10-06T10:49:57.063Z,22.04
2022-10-06T10:50:57.067Z,22.26
2022-10-06T10:51:57.133Z,22.21
2022-10-06T10:52:57.045Z,22.35
2022-10-06T10:53:57.043Z,22.41
2022-10-06T10:54:57.347Z,22.20
2022-10-06T10:55:57.031Z,21.94
2022-10-06T10:56:57.023Z,22.01
2022-10-06T10:57:57.026Z,21.96
2022-10-06T10:58:57.014Z,22.02
2022-10-06T10:59:57.010Z,22.04
2022-10-06T11:00:57.064Z,22.12
2022-10-06T11:01:57.122Z,22.21
2022-10-06T11:02:56.994Z,22.15
2022-10-06T11:03:57.010Z,22.14
2022-10-06T11:04:57.285Z,21.99
2022-10-06T11:05:56.980Z,22.01
2022-10-06T11:06:56.982Z,22.15
2022-10-06T11:07:56.969Z,22.20
2022-10-06T11:08:56.962Z,22.30
2022-10-06T11:09:56.960Z,22.36
2022-10-06T11:10:56.954Z,22.38
2022-10-06T11:11:56.949Z,22.41
2022-10-06T11:12:56.952Z,22.31
2022-10-06T11:13:56.955Z,22.01
2022-10-06T11:14:57.220Z,21.89
2022-10-06T11:15:56.972Z,21.37
2022-10-06T11:16:56.923Z,21.26
2022-10-06T11:17:56.925Z,21.15
2022-10-06T11:18:56.923Z,21.18
2022-10-06T11:19:56.930Z,20.98
2022-10-06T11:20:56.903Z,20.78
2022-10-06T11:21:56.900Z,20.61
2022-10-06T11:22:56.899Z,20.72
2022-10-06T11:23:56.889Z,20.85
2022-10-06T11:24:57.371Z,20.90
2022-10-06T11:25:56.878Z,20.88
2022-10-06T11:26:56.869Z,21.01
2022-10-06T11:27:56.910Z,21.24
2022-10-06T11:28:56.860Z,21.45
2022-10-06T11:29:57.220Z,21.48
2022-10-06T11:30:56.847Z,21.58
2022-10-06T11:31:56.980Z,21.73
2022-10-06T11:32:56.837Z,21.82
2022-10-06T11:33:56.918Z,21.90
2022-10-06T11:34:56.841Z,21.98
2022-10-06T11:35:56.841Z,22.04
2022-10-06T11:36:56.814Z,21.99
2022-10-06T11:37:56.812Z,22.05
2022-10-06T11:38:56.804Z,21.96
2022-10-06T11:39:57.112Z,22.06
2022-10-06T11:40:56.795Z,21.91
2022-10-06T11:41:56.790Z,22.05
2022-10-06T11:42:56.798Z,22.01
2022-10-06T11:43:56.780Z,22.15
2022-10-06T11:44:57.085Z,22.15
2022-10-06T11:45:56.847Z,22.20
2022-10-06T11:46:56.762Z,22.26
2022-10-06T11:47:56.760Z,22.36
2022-10-06T11:48:56.753Z,22.42
2022-10-06T11:49:56.749Z,22.36
2022-10-06T11:50:56.742Z,22.44
2022-10-06T11:51:59.296Z,22.45
2022-10-06T11:52:56.734Z,22.48
2022-10-06T11:53:56.734Z,22.31
2022-10-06T11:54:57.132Z,22.31
2022-10-06T11:55:56.719Z,22.38
2022-10-06T11:56:56.714Z,22.23
2022-10-06T11:57:56.710Z,22.19
2022-10-06T11:58:56.704Z,22.06
2022-10-06T11:59:56.706Z,22.17
2022-10-06T12:00:56.694Z,22.24
2022-10-06T12:01:56.881Z,22.35
2022-10-06T12:02:56.849Z,22.29
2022-10-06T12:03:56.681Z,22.44
2022-10-06T12:04:56.834Z,22.46
2022-10-06T12:05:57.374Z,22.45
2022-10-06T12:06:56.663Z,22.42
2022-10-06T12:07:56.685Z,22.23
2022-10-06T12:08:56.654Z,22.20
2022-10-06T12:09:56.653Z,22.31
2022-10-06T12:10:56.644Z,22.33
2022-10-06T12:11:56.644Z,22.48
2022-10-06T12:13:06.585Z,22.60
2022-10-06T12:17:18.304Z,22.97
2022-10-06T12:17:56.617Z,22.97
2022-10-06T12:18:56.618Z,23.09
2022-10-06T12:19:56.607Z,23.14
2022-10-06T12:20:56.598Z,23.23
2022-10-06T12:21:56.596Z,23.04
2022-10-06T12:22:56.589Z,22.99
2022-10-06T12:23:56.666Z,22.93
2022-10-06T12:24:56.815Z,22.93
2022-10-06T12:25:56.578Z,23.11
2022-10-06T12:26:56.571Z,23.00
2022-10-06T12:27:56.621Z,22.97
2022-10-06T12:28:56.562Z,22.64
2022-10-06T12:29:56.942Z,22.70
2022-10-06T12:30:56.619Z,22.82
2022-10-06T12:31:56.552Z,22.91
2022-10-06T12:32:56.547Z,22.94
2022-10-06T12:33:56.548Z,23.16
2022-10-06T12:34:56.858Z,23.12
2022-10-06T12:35:56.535Z,22.99
2022-10-06T12:36:56.529Z,23.12
2022-10-06T12:37:56.531Z,23.09
2022-10-06T12:38:56.520Z,23.21
2022-10-06T12:39:56.596Z,23.15
2022-10-06T12:40:56.511Z,23.21
2022-10-06T12:41:56.513Z,23.14
2022-10-06T12:42:56.504Z,23.06
2022-10-06T12:43:56.502Z,23.12
2022-10-06T12:44:56.774Z,23.19
2022-10-06T12:45:56.598Z,23.26
2022-10-06T12:46:56.487Z,23.31
2022-10-06T12:47:56.485Z,23.09
2022-10-06T12:48:56.480Z,23.01
2022-10-06T12:49:56.477Z,23.01
2022-10-06T12:50:56.471Z,23.12
2022-10-06T12:51:59.595Z,23.21
2022-10-06T12:52:56.463Z,23.11
2022-10-06T12:53:56.462Z,23.04
2022-10-06T12:54:56.799Z,23.07
2022-10-06T12:55:56.532Z,22.94
2022-10-06T12:56:56.450Z,22.91
2022-10-06T12:57:56.446Z,22.89
2022-10-06T12:58:56.441Z,22.88
2022-10-06T12:59:56.434Z,22.81
2022-10-06T13:00:56.501Z,22.76
2022-10-06T13:01:56.427Z,22.78
2022-10-06T13:02:56.422Z,22.89